Time;durP1;ratioP1;P1;durP2;ratioP2;P2;SDS_P1;SDS_P2;PMS_P1;PMS_P2;Temp;Humidity;BMP_temperature;BMP_pressure;BME280_temperature;BME280_humidity;BME280_pressure;Samples;Min_cycle;Max_cycle;Signal;HPM_P1;HPM_P2
2022/12/30 00:00:12;;;;;;;9.07;1.95;;;9.00;99.90;;;;;;5049676;28;20083;-45
2022/12/30 00:02:37;;;;;;;10.40;2.45;;;9.00;99.90;;;;;;5049305;28;20108;-49
2022/12/30 00:05:03;;;;;;;12.00;2.92;;;9.00;99.90;;;;;;5049176;28;20171;-46
2022/12/30 00:07:29;;;;;;;7.88;2.22;;;8.90;99.90;;;;;;5061633;28;20073;-54
2022/12/30 00:09:54;;;;;;;10.90;2.53;;;9.00;99.90;;;;;;5069286;28;20444;-47
2022/12/30 00:34:37;;;;;;;7.68;2.13;;;8.80;99.90;;;;;;5069004;28;20052;-45
2022/12/30 00:37:04;;;;;;;8.65;2.30;;;8.80;99.90;;;;;;5069383;28;20021;-44
2022/12/30 00:39:30;;;;;;;12.52;2.15;;;8.70;99.90;;;;;;5067269;28;20025;-45
2022/12/30 00:44:39;;;;;;;11.73;2.60;;;8.70;99.90;;;;;;5068545;28;20034;-46
2022/12/30 00:47:06;;;;;;;10.65;2.95;;;8.60;99.90;;;;;;5068729;28;20017;-46
2022/12/30 00:57:43;;;;;;;9.20;2.15;;;8.40;99.90;;;;;;5068995;28;20121;-47
2022/12/30 01:00:11;;;;;;;16.35;2.17;;;8.30;99.90;;;;;;5068271;28;20028;-46
2022/12/30 01:02:37;;;;;;;6.47;2.35;;;8.20;99.90;;;;;;5100395;22;20101;-60
2022/12/30 01:05:04;;;;;;;8.85;2.15;;;8.10;99.90;;;;;;5089372;28;20028;-59
2022/12/30 01:07:30;;;;;;;10.43;2.67;;;8.00;99.90;;;;;;5070672;28;20032;-60
2022/12/30 01:09:56;;;;;;;14.45;3.25;;;7.90;99.90;;;;;;5070722;28;20081;-60
2022/12/30 01:12:22;;;;;;;10.68;4.97;;;7.90;99.90;;;;;;5088160;28;20081;-61
2022/12/30 01:14:50;;;;;;;16.05;3.38;;;7.90;99.90;;;;;;5088120;28;20154;-60
2022/12/30 01:17:20;;;;;;;43.08;21.85;;;7.90;99.90;;;;;;5089248;28;20487;-59
2022/12/30 01:19:45;;;;;;;13.10;2.83;;;7.90;99.90;;;;;;5088169;28;20043;-58
2022/12/30 01:22:11;;;;;;;15.40;2.30;;;7.90;99.90;;;;;;5088014;28;20024;-62
2022/12/30 01:24:37;;;;;;;14.93;2.92;;;7.80;99.90;;;;;;5070503;28;20089;-63
2022/12/30 01:27:04;;;;;;;9.60;2.03;;;7.90;99.90;;;;;;5069799;28;20059;-56
2022/12/30 01:29:36;;;;;;;23.15;3.25;;;7.90;99.90;;;;;;5089264;28;20161;-60
2022/12/30 01:32:03;;;;;;;11.45;3.47;;;7.90;99.90;;;;;;5072344;28;20028;-58
2022/12/30 01:34:29;;;;;;;12.18;2.63;;;7.80;99.90;;;;;;5091794;28;20043;-59
2022/12/30 01:36:54;;;;;;;14.65;2.50;;;7.80;99.90;;;;;;5091602;28;20020;-60
2022/12/30 01:39:20;;;;;;;12.57;3.15;;;7.80;99.90;;;;;;5091427;28;20027;-53
2022/12/30 01:41:47;;;;;;;11.35;2.70;;;7.70;99.90;;;;;;5095108;28;20491;-55
2022/12/30 01:44:45;;;;;;;16.30;3.20;;;7.70;99.90;;;;;;5076750;28;20055;-55
2022/12/30 01:47:15;;;;;;;8.52;2.83;;;7.60;99.90;;;;;;5095804;28;20032;-56
2022/12/30 01:49:44;;;;;;;9.70;2.70;;;7.60;99.90;;;;;;5095681;28;20031;-51
2022/12/30 01:52:11;;;;;;;10.93;3.15;;;7.60;99.90;;;;;;5095402;28;20488;-53
2022/12/30 01:54:36;;;;;;;13.07;3.08;;;7.60;99.90;;;;;;5095444;28;20116;-55
2022/12/30 01:57:06;;;;;;;9.95;2.65;;;7.50;99.90;;;;;;5077547;28;20023;-54
2022/12/30 01:59:32;;;;;;;20.20;3.88;;;7.50;99.90;;;;;;5077357;28;20025;-52
2022/12/30 02:01:59;;;;;;;11.68;3.50;;;7.50;99.90;;;;;;5095074;28;20058;-53
2022/12/30 02:04:27;;;;;;;16.00;2.53;;;7.40;99.90;;;;;;5096275;28;20186;-53
2022/12/30 02:06:58;;;;;;;7.65;2.45;;;7.50;99.90;;;;;;5095609;28;20510;-54
2022/12/30 02:09:25;;;;;;;9.45;3.10;;;7.50;99.90;;;;;;5095104;28;20034;-51
2022/12/30 02:11:51;;;;;;;9.07;2.35;;;7.50;99.90;;;;;;5094937;28;20070;-50
2022/12/30 02:14:16;;;;;;;12.60;2.70;;;7.40;99.90;;;;;;5096003;28;20028;-52
2022/12/30 02:17:10;;;;;;;13.43;2.65;;;7.40;99.90;;;;;;5096440;28;20083;-53
2022/12/30 02:20:06;;;;;;;11.50;2.70;;;7.20;99.90;;;;;;5096089;28;20035;-56
2022/12/30 02:23:16;;;;;;;8.80;2.92;;;7.40;99.90;;;;;;5095662;28;20020;-51
2022/12/30 02:26:10;;;;;;;10.60;3.33;;;7.40;99.90;;;;;;5095696;28;20325;-53
2022/12/30 02:28:50;;;;;;;18.17;3.90;;;7.30;99.90;;;;;;5066234;28;20040;-52
2022/12/30 02:31:27;;;;;;;17.48;3.03;;;7.30;99.90;;;;;;5096113;28;20221;-49
2022/12/30 02:34:17;;;;;;;13.25;3.80;;;7.30;99.90;;;;;;5095575;28;20028;-53
2022/12/30 02:37:08;;;;;;;11.50;2.50;;;7.20;99.90;;;;;;5095974;28;20048;-51
2022/12/30 02:39:41;;;;;;;7.63;2.20;;;7.20;99.90;;;;;;5058161;28;20028;-52
2022/12/30 02:45:17;;;;;;;10.27;2.22;;;7.10;99.90;;;;;;5096303;28;20027;-52
2022/12/30 02:47:58;;;;;;;10.98;3.28;;;7.00;99.90;;;;;;5077924;28;20025;-52
2022/12/30 02:53:19;;;;;;;10.55;2.30;;;7.00;99.90;;;;;;5099023;28;20584;-50
2022/12/30 02:55:45;;;;;;;9.65;2.45;;;6.90;99.90;;;;;;5100125;28;20291;-54
2022/12/30 02:58:12;;;;;;;11.25;2.60;;;6.80;99.90;;;;;;5099459;28;20042;-51
2022/12/30 03:04:30;;;;;;;10.25;2.88;;;6.70;99.90;;;;;;5098724;28;20038;-56
2022/12/30 03:07:21;;;;;;;10.82;3.78;;;6.60;99.90;;;;;;5053509;28;20123;-54
2022/12/30 03:12:54;;;;;;;14.18;2.95;;;6.60;99.90;;;;;;5098491;28;20111;-53
2022/12/30 03:15:25;;;;;;;14.05;2.63;;;6.70;99.90;;;;;;5098693;28;20024;-50
2022/12/30 03:17:52;;;;;;;13.07;3.13;;;6.60;99.90;;;;;;5081394;28;20050;-49
2022/12/30 03:20:21;;;;;;;13.27;4.00;;;6.70;99.90;;;;;;5080692;28;20028;-51
2022/12/30 03:28:21;;;;;;;8.98;3.63;;;6.90;99.90;;;;;;5098649;28;20058;-53
2022/12/30 03:30:54;;;;;;;10.85;2.35;;;6.90;99.90;;;;;;5098109;28;20024;-50
2022/12/30 03:33:20;;;;;;;22.38;3.80;;;6.90;99.90;;;;;;5097228;28;20442;-53
2022/12/30 03:35:54;;;;;;;15.73;3.78;;;6.90;99.90;;;;;;5098372;28;20028;-55
2022/12/30 03:38:26;;;;;;;21.77;4.65;;;6.90;99.90;;;;;;5096013;28;20031;-51
2022/12/30 03:40:55;;;;;;;16.10;3.33;;;6.80;99.90;;;;;;5097988;28;20062;-51
2022/12/30 03:43:21;;;;;;;15.88;2.90;;;6.80;99.90;;;;;;5097545;28;20024;-51
2022/12/30 03:45:46;;;;;;;10.30;2.45;;;6.80;99.90;;;;;;5079640;28;20026;-52
2022/12/30 03:48:12;;;;;;;10.35;2.60;;;6.80;99.90;;;;;;5097618;28;20024;-55
2022/12/30 03:50:37;;;;;;;11.70;2.78;;;6.70;99.90;;;;;;5097944;28;20538;-53
2022/12/30 03:53:03;;;;;;;8.52;3.10;;;6.70;99.90;;;;;;5096641;28;20020;-51
2022/12/30 03:55:28;;;;;;;7.95;2.53;;;6.70;99.90;;;;;;5096697;28;20056;-57
2022/12/30 03:57:53;;;;;;;14.82;3.28;;;6.70;99.90;;;;;;5097035;28;20092;-53
2022/12/30 04:00:22;;;;;;;15.63;3.10;;;6.70;99.90;;;;;;5097357;28;20099;-51
2022/12/30 04:02:47;;;;;;;10.07;3.15;;;6.70;99.90;;;;;;5095814;28;20028;-50
2022/12/30 04:05:13;;;;;;;11.80;2.72;;;6.60;99.90;;;;;;5080261;28;20066;-56
2022/12/30 04:07:39;;;;;;;15.35;2.80;;;6.60;99.90;;;;;;5097870;28;20032;-50
2022/12/30 04:10:05;;;;;;;15.40;3.30;;;6.60;99.90;;;;;;5097479;28;20470;-51
2022/12/30 04:12:30;;;;;;;9.57;2.67;;;6.60;99.90;;;;;;5096783;28;20413;-50
2022/12/30 04:14:56;;;;;;;12.93;4.03;;;6.60;99.90;;;;;;5098095;28;20017;-51
2022/12/30 04:17:21;;;;;;;7.72;2.85;;;6.50;99.90;;;;;;5079679;28;20038;-53
2022/12/30 04:19:47;;;;;;;13.00;3.58;;;6.50;99.90;;;;;;5098015;28;20051;-52
2022/12/30 04:22:12;;;;;;;15.68;2.88;;;6.50;99.90;;;;;;5079037;28;20035;-50
2022/12/30 04:24:38;;;;;;;9.98;2.55;;;6.50;99.90;;;;;;5098455;28;20035;-54
2022/12/30 04:27:03;;;;;;;11.68;3.33;;;6.60;99.90;;;;;;5098243;28;20484;-51
2022/12/30 04:29:29;;;;;;;23.27;5.18;;;6.70;99.90;;;;;;5079346;28;20042;-53
2022/12/30 04:31:54;;;;;;;9.70;2.50;;;6.70;99.90;;;;;;5078512;28;20047;-51
2022/12/30 04:34:20;;;;;;;10.38;2.65;;;6.80;99.90;;;;;;5078358;28;20475;-51
2022/12/30 04:36:45;;;;;;;8.13;2.22;;;6.80;99.90;;;;;;5097452;28;20078;-49
2022/12/30 04:39:11;;;;;;;11.85;2.53;;;6.80;99.90;;;;;;5077526;28;20425;-52
2022/12/30 04:41:37;;;;;;;9.32;2.55;;;6.90;99.90;;;;;;5096760;28;20043;-52
2022/12/30 04:44:04;;;;;;;9.27;3.05;;;7.00;99.90;;;;;;5078217;28;20469;-48
2022/12/30 04:46:30;;;;;;;9.70;2.50;;;7.00;99.90;;;;;;5098090;28;20487;-52
2022/12/30 04:48:55;;;;;;;12.80;2.83;;;7.00;99.90;;;;;;5097353;28;20031;-55
2022/12/30 04:51:22;;;;;;;6.95;2.60;;;7.10;99.90;;;;;;5097435;28;20494;-53
2022/12/30 04:53:47;;;;;;;6.28;2.88;;;7.10;99.90;;;;;;5096189;28;20016;-55
2022/12/30 04:56:13;;;;;;;9.45;3.13;;;7.00;99.90;;;;;;5097192;28;20035;-53
2022/12/30 04:58:38;;;;;;;10.55;2.78;;;7.00;99.90;;;;;;5096475;28;20023;-52
2022/12/30 05:01:04;;;;;;;5.80;2.00;;;7.00;99.90;;;;;;5096368;28;20028;-52
2022/12/30 05:03:30;;;;;;;13.38;2.17;;;7.00;99.90;;;;;;5095737;28;20043;-52
2022/12/30 05:05:56;;;;;;;7.57;2.50;;;7.00;99.90;;;;;;5078326;28;20028;-57
2022/12/30 05:08:21;;;;;;;8.50;2.55;;;7.00;99.90;;;;;;5096623;28;20028;-50
2022/12/30 05:10:47;;;;;;;14.93;4.03;;;7.10;99.90;;;;;;5077857;28;20028;-50
2022/12/30 05:13:12;;;;;;;15.48;3.15;;;7.10;99.90;;;;;;5095121;28;20490;-55
2022/12/30 05:15:38;;;;;;;18.35;3.50;;;7.10;99.90;;;;;;5095509;28;20042;-54
2022/12/30 05:18:03;;;;;;;8.35;2.80;;;7.20;99.90;;;;;;5095791;28;20024;-54
2022/12/30 05:20:29;;;;;;;14.40;3.40;;;7.10;99.90;;;;;;5078184;28;20137;-55
2022/12/30 05:22:54;;;;;;;7.47;3.13;;;7.10;99.90;;;;;;5095896;28;20154;-53
2022/12/30 05:28:04;;;;;;;11.10;3.40;;;7.10;99.90;;;;;;5096273;28;20404;-51
2022/12/30 05:30:30;;;;;;;9.38;2.58;;;7.10;99.90;;;;;;5096093;28;20024;-51
2022/12/30 05:32:55;;;;;;;9.32;3.05;;;7.10;99.90;;;;;;5076918;28;20024;-54
2022/12/30 05:35:21;;;;;;;9.43;2.47;;;7.20;99.90;;;;;;5095250;28;20046;-55
2022/12/30 05:37:46;;;;;;;6.00;2.65;;;7.10;99.90;;;;;;5092998;28;20036;-53
2022/12/30 05:40:12;;;;;;;10.45;3.55;;;7.20;99.90;;;;;;5095985;28;20395;-51
2022/12/30 05:42:38;;;;;;;11.95;3.55;;;7.30;99.90;;;;;;5077573;28;20471;-56
2022/12/30 05:45:04;;;;;;;9.63;2.83;;;7.30;99.90;;;;;;5096374;28;20028;-56
2022/12/30 05:47:30;;;;;;;9.40;3.15;;;7.30;99.90;;;;;;5077533;28;20031;-57
2022/12/30 05:49:55;;;;;;;9.43;2.70;;;7.30;99.90;;;;;;5096443;28;20028;-50
2022/12/30 05:52:21;;;;;;;12.23;3.22;;;7.30;99.90;;;;;;5095591;28;20484;-54
2022/12/30 05:54:46;;;;;;;13.93;3.03;;;7.30;99.90;;;;;;5096709;28;20028;-53
2022/12/30 05:57:12;;;;;;;13.27;3.25;;;7.30;99.90;;;;;;5096205;28;20020;-57
2022/12/30 05:59:37;;;;;;;14.27;3.30;;;7.30;99.90;;;;;;5096631;28;20047;-50
2022/12/30 06:02:03;;;;;;;11.52;3.42;;;7.40;99.90;;;;;;5095941;28;20039;-53
2022/12/30 06:04:29;;;;;;;12.00;3.13;;;7.30;99.90;;;;;;5096205;28;20032;-55
2022/12/30 06:06:54;;;;;;;10.07;3.40;;;7.40;99.90;;;;;;5096334;28;20035;-51
2022/12/30 06:09:20;;;;;;;12.43;3.17;;;7.40;99.90;;;;;;5096882;28;20024;-52
2022/12/30 06:11:46;;;;;;;9.00;2.83;;;7.40;99.90;;;;;;5096341;28;20031;-54
2022/12/30 06:14:17;;;;;;;12.43;3.35;;;7.40;99.90;;;;;;5095571;28;20012;-51
2022/12/30 06:16:43;;;;;;;17.35;4.05;;;7.40;99.90;;;;;;5096420;28;20058;-50
2022/12/30 06:19:08;;;;;;;8.00;2.75;;;7.40;99.90;;;;;;5077741;28;20085;-52
2022/12/30 06:21:34;;;;;;;11.55;3.50;;;7.50;99.90;;;;;;5077835;28;20461;-53
2022/12/30 06:24:00;;;;;;;15.90;3.08;;;7.50;99.90;;;;;;5095999;28;20476;-56
2022/12/30 06:26:26;;;;;;;10.23;3.45;;;7.40;99.90;;;;;;5099372;28;20020;-55
2022/12/30 06:28:52;;;;;;;12.85;3.13;;;7.50;99.90;;;;;;5100997;28;20031;-51
2022/12/30 06:31:17;;;;;;;8.25;2.85;;;7.40;99.90;;;;;;5099864;28;20032;-56
2022/12/30 06:33:43;;;;;;;16.10;4.78;;;7.40;99.90;;;;;;5098931;28;20020;-53
2022/12/30 06:36:09;;;;;;;14.52;4.00;;;7.40;99.90;;;;;;5100091;28;20020;-55
2022/12/30 06:38:35;;;;;;;11.50;3.10;;;7.40;99.90;;;;;;5098535;28;20032;-56
2022/12/30 06:41:00;;;;;;;9.98;2.75;;;7.40;99.90;;;;;;5099462;28;20404;-55
2022/12/30 06:43:26;;;;;;;10.73;3.50;;;7.30;99.90;;;;;;5081018;28;20027;-55
2022/12/30 06:45:51;;;;;;;12.25;3.45;;;7.30;99.90;;;;;;5080882;28;20036;-52
2022/12/30 06:48:17;;;;;;;20.55;4.10;;;7.30;99.90;;;;;;5099419;28;20067;-56
2022/12/30 06:50:43;;;;;;;15.02;3.95;;;7.30;99.90;;;;;;5100103;28;20028;-54
2022/12/30 06:53:08;;;;;;;19.48;4.15;;;7.20;99.90;;;;;;5098266;28;20062;-51
2022/12/30 06:55:34;;;;;;;22.08;4.03;;;7.30;99.90;;;;;;5099579;28;20024;-55
2022/12/30 06:58:01;;;;;;;5.05;2.50;;;7.20;99.90;;;;;;5099132;28;20016;-56
2022/12/30 07:00:27;;;;;;;11.15;3.28;;;7.20;99.90;;;;;;5099144;28;20127;-52
2022/12/30 07:02:52;;;;;;;15.15;3.15;;;7.20;99.90;;;;;;5117993;22;20127;-42
2022/12/30 07:05:18;;;;;;;8.20;2.50;;;7.20;99.90;;;;;;5094504;28;20107;-45
2022/12/30 07:07:43;;;;;;;6.30;2.63;;;7.10;99.90;;;;;;5094219;28;20024;-49
2022/12/30 07:10:09;;;;;;;16.55;3.10;;;7.20;99.90;;;;;;5094433;28;20059;-45
2022/12/30 07:12:34;;;;;;;13.57;3.83;;;7.20;99.90;;;;;;5093669;28;20024;-46
2022/12/30 07:15:00;;;;;;;13.05;3.88;;;7.20;99.90;;;;;;5076198;28;20474;-47
2022/12/30 07:17:25;;;;;;;5.28;2.88;;;7.20;99.90;;;;;;5094392;28;20055;-45
2022/12/30 07:19:51;;;;;;;12.63;3.30;;;7.20;99.90;;;;;;5094515;28;20484;-45
2022/12/30 07:22:16;;;;;;;12.18;3.65;;;7.20;99.90;;;;;;5093477;28;20020;-47
2022/12/30 07:24:42;;;;;;;13.02;3.92;;;7.20;99.90;;;;;;5094175;28;20392;-45
2022/12/30 07:27:11;;;;;;;12.98;3.13;;;7.20;99.90;;;;;;5094652;28;20070;-45
2022/12/30 07:29:38;;;;;;;9.80;3.03;;;7.20;99.90;;;;;;5094016;28;20080;-47
2022/12/30 07:32:08;;;;;;;5.80;3.17;;;7.10;99.90;;;;;;5093399;28;20020;-45
2022/12/30 07:34:39;;;;;;;9.23;3.30;;;7.10;99.90;;;;;;5093853;28;20073;-44
2022/12/30 07:37:05;;;;;;;9.93;3.00;;;7.10;99.90;;;;;;5093078;28;20093;-49
2022/12/30 07:39:31;;;;;;;12.57;3.95;;;7.10;99.90;;;;;;5092320;28;20094;-46
2022/12/30 07:41:57;;;;;;;15.25;3.78;;;7.10;99.90;;;;;;5093247;28;20107;-41
2022/12/30 07:44:23;;;;;;;9.43;3.90;;;7.00;99.90;;;;;;5094261;28;20289;-47
2022/12/30 07:46:48;;;;;;;15.98;3.70;;;6.90;99.90;;;;;;5093907;28;20032;-47
2022/12/30 07:49:14;;;;;;;10.38;3.70;;;6.90;99.90;;;;;;5093631;28;20023;-46
2022/12/30 07:51:39;;;;;;;10.30;4.80;;;6.90;99.90;;;;;;5093486;28;20039;-49
2022/12/30 07:54:05;;;;;;;11.98;4.80;;;6.80;99.90;;;;;;5092759;28;20103;-44
2022/12/30 07:56:30;;;;;;;13.43;4.38;;;6.80;99.90;;;;;;5093459;28;20035;-47
2022/12/30 07:58:56;;;;;;;10.48;4.45;;;6.80;99.90;;;;;;5075287;28;20065;-46
2022/12/30 08:01:22;;;;;;;11.68;4.85;;;6.80;99.90;;;;;;5093662;28;20658;-44
2022/12/30 08:03:48;;;;;;;11.27;4.90;;;6.90;99.90;;;;;;5092467;28;20032;-51
2022/12/30 08:06:16;;;;;;;12.23;4.70;;;6.90;99.90;;;;;;5093397;28;20039;-47
2022/12/30 08:08:42;;;;;;;20.08;4.63;;;6.90;99.90;;;;;;5093191;28;20035;-45
2022/12/30 08:11:10;;;;;;;12.70;4.78;;;6.90;99.90;;;;;;5093111;28;20499;-46
2022/12/30 08:13:37;;;;;;;10.95;5.20;;;7.00;99.90;;;;;;5092190;28;20032;-47
2022/12/30 08:16:20;;;;;;;8.75;4.30;;;7.00;99.90;;;;;;5092950;28;20074;-48
2022/12/30 08:18:46;;;;;;;13.27;4.63;;;7.10;99.90;;;;;;5093117;28;20034;-45
2022/12/30 08:21:16;;;;;;;11.15;4.47;;;7.10;99.90;;;;;;5092915;28;20656;-50
2022/12/30 08:23:44;;;;;;;18.75;5.03;;;7.10;99.90;;;;;;5092330;28;20514;-45
2022/12/30 08:26:12;;;;;;;7.80;3.65;;;7.20;99.90;;;;;;5092891;28;20055;-47
2022/12/30 08:28:38;;;;;;;10.27;4.25;;;7.20;99.90;;;;;;5092851;28;20035;-49
2022/12/30 08:31:08;;;;;;;8.48;3.92;;;7.20;99.90;;;;;;5093147;28;20028;-45
2022/12/30 08:33:34;;;;;;;7.63;4.18;;;7.10;99.90;;;;;;5092180;28;20070;-45
2022/12/30 08:36:01;;;;;;;13.98;4.10;;;7.10;99.90;;;;;;5092775;28;20231;-50
2022/12/30 08:38:26;;;;;;;10.05;5.82;;;7.20;99.90;;;;;;5091049;28;20024;-47
2022/12/30 08:40:52;;;;;;;7.18;4.13;;;7.10;99.90;;;;;;5092772;28;20096;-49
2022/12/30 08:43:18;;;;;;;6.85;4.38;;;7.20;99.90;;;;;;5091871;28;20480;-45
2022/12/30 08:45:44;;;;;;;8.00;4.25;;;7.20;99.90;;;;;;5092710;28;20023;-48
2022/12/30 08:48:09;;;;;;;9.38;4.25;;;7.20;99.90;;;;;;5092650;28;20028;-46
2022/12/30 08:50:35;;;;;;;17.90;4.45;;;7.30;99.90;;;;;;5092517;28;20032;-50
2022/12/30 08:53:00;;;;;;;6.95;4.35;;;7.20;99.90;;;;;;5091701;28;20032;-48
2022/12/30 08:55:27;;;;;;;7.30;4.55;;;7.30;99.90;;;;;;5092410;28;20452;-49
2022/12/30 08:57:53;;;;;;;11.05;4.78;;;7.40;99.90;;;;;;5092593;28;20012;-52
2022/12/30 09:00:18;;;;;;;7.07;4.95;;;7.50;99.90;;;;;;5088106;28;20032;-49
2022/12/30 09:02:44;;;;;;;10.02;4.88;;;7.60;99.90;;;;;;5091036;28;20028;-46
2022/12/30 09:05:09;;;;;;;9.32;4.35;;;7.70;99.90;;;;;;5091968;28;20040;-53
2022/12/30 09:07:35;;;;;;;7.20;5.22;;;7.80;99.90;;;;;;5091978;28;20102;-50
2022/12/30 09:10:01;;;;;;;11.13;4.80;;;7.80;99.90;;;;;;5073886;28;20028;-48
2022/12/30 09:12:26;;;;;;;9.10;5.55;;;8.00;99.90;;;;;;5091059;28;20012;-49
2022/12/30 09:14:52;;;;;;;6.68;4.97;;;8.00;99.90;;;;;;5091901;28;20035;-51
2022/12/30 09:17:17;;;;;;;8.52;5.22;;;8.10;99.90;;;;;;5089887;28;20396;-49
2022/12/30 09:19:43;;;;;;;10.15;4.97;;;8.20;99.90;;;;;;5091800;28;20540;-49
2022/12/30 09:22:09;;;;;;;8.52;5.57;;;8.30;99.90;;;;;;5086896;28;20024;-49
2022/12/30 09:24:35;;;;;;;7.00;4.25;;;8.40;99.90;;;;;;5096128;28;20387;-51
2022/12/30 09:27:00;;;;;;;8.40;4.53;;;8.70;99.90;;;;;;5094005;28;20033;-50
2022/12/30 09:29:26;;;;;;;6.97;4.80;;;8.90;99.90;;;;;;5079046;28;20117;-46
2022/12/30 09:31:51;;;;;;;9.38;4.45;;;9.20;99.90;;;;;;5071158;28;20033;-43
2022/12/30 09:34:17;;;;;;;6.03;4.25;;;9.40;99.90;;;;;;5075110;28;20031;-46
2022/12/30 09:36:43;;;;;;;7.25;4.22;;;9.70;99.90;;;;;;5091747;28;20184;-46
2022/12/30 09:39:08;;;;;;;5.90;4.35;;;9.80;99.90;;;;;;5102401;28;20020;-46
2022/12/30 09:45:15;;;;;;;4.90;4.03;;;9.90;99.90;;;;;;5111425;28;20046;-47
2022/12/30 09:47:54;;;;;;;9.15;4.43;;;10.30;99.90;;;;;;5076084;28;20573;-47
2022/12/30 09:50:37;;;;;;;4.07;3.70;;;10.60;99.90;;;;;;5080365;28;20024;-45
2022/12/30 09:53:13;;;;;;;6.40;3.55;;;11.00;99.90;;;;;;5091092;28;20032;-46
2022/12/30 09:55:48;;;;;;;3.88;2.75;;;11.40;99.90;;;;;;5092382;28;20410;-45
2022/12/30 09:58:21;;;;;;;5.53;2.22;;;11.90;99.90;;;;;;5092497;28;20024;-47
2022/12/30 10:00:48;;;;;;;3.63;2.45;;;12.10;99.90;;;;;;5093703;28;20488;-45
2022/12/30 10:03:18;;;;;;;5.72;2.80;;;12.30;99.90;;;;;;5097271;28;20456;-44
2022/12/30 10:05:54;;;;;;;4.75;3.17;;;12.30;99.90;;;;;;5079280;28;20507;-45
2022/12/30 10:08:53;;;;;;;4.15;2.67;;;12.30;99.90;;;;;;5078947;28;20020;-44
2022/12/30 10:11:33;;;;;;;2.35;1.98;;;12.30;99.90;;;;;;5094983;28;20064;-44
2022/12/30 10:14:04;;;;;;;5.63;2.65;;;12.60;99.90;;;;;;5090627;28;20030;-44
2022/12/30 10:16:47;;;;;;;2.50;2.03;;;12.50;99.90;;;;;;5095856;28;20024;-48
2022/12/30 10:19:36;;;;;;;3.38;2.00;;;12.40;99.90;;;;;;5090262;28;20016;-46
2022/12/30 10:22:13;;;;;;;1.88;1.75;;;12.20;99.90;;;;;;5074484;28;20027;-49
2022/12/30 10:25:02;;;;;;;2.33;1.88;;;11.80;99.90;;;;;;5075282;28;20250;-47
2022/12/30 10:27:44;;;;;;;4.07;1.77;;;11.60;99.90;;;;;;5074725;28;20052;-49
2022/12/30 10:30:18;;;;;;;4.13;1.63;;;11.20;99.90;;;;;;5074766;28;20040;-53
2022/12/30 10:32:53;;;;;;;2.03;1.50;;;10.90;99.90;;;;;;5090891;28;20444;-54
2022/12/30 10:35:28;;;;;;;1.87;1.50;;;10.70;99.90;;;;;;5095002;28;20115;-50
2022/12/30 10:38:10;;;;;;;1.50;1.38;;;10.50;99.90;;;;;;5094443;28;20035;-49
2022/12/30 10:41:02;;;;;;;4.28;1.77;;;10.40;99.90;;;;;;5094896;28;20044;-49
2022/12/30 10:43:52;;;;;;;4.70;1.63;;;10.20;99.90;;;;;;5094080;28;20020;-53
2022/12/30 10:46:50;;;;;;;1.88;1.15;;;10.20;99.90;;;;;;5095049;28;20039;-50
2022/12/30 10:49:33;;;;;;;4.72;2.17;;;10.00;99.90;;;;;;5060547;28;20137;-49
2022/12/30 10:52:01;;;;;;;2.85;1.52;;;9.90;99.90;;;;;;5094406;28;20020;-52
2022/12/30 10:54:26;;;;;;;4.45;1.48;;;9.80;99.90;;;;;;5094820;28;20388;-46
2022/12/30 10:56:52;;;;;;;3.40;1.65;;;9.70;99.90;;;;;;5108712;28;20023;-50
2022/12/30 10:59:25;;;;;;;1.95;1.67;;;9.70;99.90;;;;;;5114920;28;20554;-47
2022/12/30 11:02:00;;;;;;;9.98;4.05;;;9.60;99.90;;;;;;5096476;28;20027;-48
2022/12/30 11:04:39;;;;;;;10.48;5.85;;;9.70;99.90;;;;;;5113079;28;20398;-46
2022/12/30 11:07:08;;;;;;;4.65;1.60;;;9.60;99.90;;;;;;5094335;28;20495;-47
2022/12/30 11:09:34;;;;;;;3.30;1.25;;;9.60;99.90;;;;;;5075210;28;20043;-46
2022/12/30 11:15:02;;;;;;;2.10;1.85;;;9.60;99.90;;;;;;5075092;28;20078;-52
2022/12/30 11:17:48;;;;;;;4.10;1.42;;;9.60;99.90;;;;;;5073928;28;20036;-51
2022/12/30 11:20:14;;;;;;;;;;;9.60;99.90;;;;;;5073902;28;20043;-47
2022/12/30 11:22:47;;;;;;;7.72;1.23;;;9.60;99.90;;;;;;5093553;28;19908;-44
2022/12/30 11:25:36;;;;;;;3.22;1.20;;;9.60;99.90;;;;;;5093521;28;20032;-44
2022/12/30 11:28:05;;;;;;;4.53;1.25;;;9.60;99.90;;;;;;5075471;28;20062;-44
2022/12/30 11:30:52;;;;;;;2.03;1.20;;;9.60;99.90;;;;;;5092540;28;20028;-44
2022/12/30 11:33:21;;;;;;;3.80;1.00;;;9.50;99.90;;;;;;5104403;28;20028;-42
2022/12/30 11:35:49;;;;;;;6.63;1.65;;;9.50;99.90;;;;;;5112394;28;20043;-44
2022/12/30 11:38:36;;;;;;;7.43;1.50;;;9.60;99.90;;;;;;5095876;28;20020;-45
2022/12/30 11:41:17;;;;;;;3.47;1.42;;;9.50;99.90;;;;;;5102093;28;20035;-44
2022/12/30 11:44:06;;;;;;;4.13;1.17;;;9.50;99.90;;;;;;5092786;28;20032;-44
2022/12/30 11:46:44;;;;;;;4.50;1.13;;;9.50;99.90;;;;;;5093671;28;20488;-45
2022/12/30 11:49:19;;;;;;;5.47;2.47;;;9.50;99.90;;;;;;5100380;28;20020;-47
2022/12/30 11:51:49;;;;;;;2.80;1.25;;;9.50;99.90;;;;;;5113374;28;20027;-42
2022/12/30 11:54:19;;;;;;;5.25;1.30;;;9.60;99.90;;;;;;5114046;28;20054;-46
2022/12/30 11:56:57;;;;;;;4.03;1.25;;;9.60;99.90;;;;;;5114720;28;20068;-43
2022/12/30 11:59:47;;;;;;;2.72;1.35;;;9.50;99.90;;;;;;5114184;28;20030;-45
2022/12/30 12:02:33;;;;;;;3.85;1.10;;;9.50;99.90;;;;;;5112684;28;20046;-48
2022/12/30 12:04:58;;;;;;;5.82;1.42;;;9.50;99.90;;;;;;5113692;28;20521;-44
2022/12/30 12:07:31;;;;;;;4.85;1.10;;;9.50;99.90;;;;;;5112049;28;20035;-44
2022/12/30 12:10:08;;;;;;;5.22;1.55;;;9.60;99.90;;;;;;5092972;28;20036;-48
2022/12/30 12:12:42;;;;;;;3.38;1.23;;;9.60;99.90;;;;;;5074331;28;20578;-52
2022/12/30 12:15:27;;;;;;;5.47;1.20;;;9.60;99.90;;;;;;5093471;28;20447;-46
2022/12/30 12:18:23;;;;;;;8.73;1.95;;;9.60;99.90;;;;;;5097155;28;20541;-54
2022/12/30 12:20:54;;;;;;;4.32;1.00;;;9.60;99.90;;;;;;5093255;28;20036;-43
2022/12/30 12:23:44;;;;;;;2.63;1.15;;;9.60;99.90;;;;;;5092083;28;20111;-44
2022/12/30 12:26:22;;;;;;;1.55;1.30;;;9.60;99.90;;;;;;5092611;28;20035;-46
2022/12/30 12:28:50;;;;;;;2.47;1.25;;;9.70;99.90;;;;;;5093095;28;20130;-45
2022/12/30 12:31:37;;;;;;;3.50;1.08;;;9.60;99.90;;;;;;5093972;28;20100;-43
2022/12/30 12:34:15;;;;;;;4.63;1.35;;;9.70;99.90;;;;;;5092300;28;20431;-44
2022/12/30 12:36:44;;;;;;;2.00;1.00;;;9.70;99.90;;;;;;5093797;28;20024;-49
2022/12/30 12:39:33;;;;;;;3.97;0.80;;;9.70;99.90;;;;;;5093680;28;20028;-43
2022/12/30 12:42:10;;;;;;;9.52;5.38;;;9.80;99.90;;;;;;5075590;28;20020;-44
2022/12/30 12:44:57;;;;;;;6.28;3.67;;;9.80;99.90;;;;;;5083944;28;20017;-39
2022/12/30 12:47:52;;;;;;;2.90;1.38;;;9.90;99.90;;;;;;5073040;28;20032;-43
2022/12/30 12:50:27;;;;;;;3.63;1.95;;;9.90;99.90;;;;;;5083620;28;20736;-42
2022/12/30 12:53:30;;;;;;;2.00;0.90;;;10.00;99.90;;;;;;5091636;28;20182;-45
2022/12/30 12:56:08;;;;;;;3.25;1.42;;;10.00;99.90;;;;;;5072590;28;20262;-47
2022/12/30 12:59:00;;;;;;;8.98;1.00;;;10.10;99.90;;;;;;5090919;28;20012;-44
2022/12/30 13:01:35;;;;;;;3.58;0.73;;;10.00;99.90;;;;;;5091245;28;20092;-44
2022/12/30 13:04:25;;;;;;;3.65;0.82;;;10.00;99.90;;;;;;5114065;22;20042;-50
2022/12/30 13:07:25;;;;;;;2.22;0.82;;;10.00;99.90;;;;;;5090945;28;20035;-48
2022/12/30 13:10:08;;;;;;;1.80;0.75;;;10.00;99.90;;;;;;5092562;28;20024;-52
2022/12/30 13:12:49;;;;;;;2.67;0.65;;;10.00;99.90;;;;;;5091599;28;20068;-54
2022/12/30 13:15:33;;;;;;;1.58;0.77;;;10.00;99.90;;;;;;5091682;28;20016;-52
2022/12/30 13:18:03;;;;;;;4.28;0.98;;;10.00;99.90;;;;;;5081299;28;20016;-53
2022/12/30 13:20:34;;;;;;;1.60;0.90;;;10.00;99.90;;;;;;5091945;28;20052;-52
2022/12/30 13:23:04;;;;;;;2.33;0.90;;;10.00;99.90;;;;;;5091283;28;20059;-54
2022/12/30 13:25:34;;;;;;;1.70;1.08;;;10.00;99.90;;;;;;5092092;28;20024;-49
2022/12/30 13:28:01;;;;;;;2.38;0.90;;;10.10;99.90;;;;;;5092236;28;20028;-54
2022/12/30 13:30:42;;;;;;;2.55;1.05;;;10.10;99.90;;;;;;5092010;28;20038;-52
2022/12/30 13:33:24;;;;;;;2.17;0.90;;;10.00;99.90;;;;;;5073281;28;20020;-53
2022/12/30 13:36:14;;;;;;;4.65;0.95;;;10.10;99.90;;;;;;5089439;28;20103;-52
2022/12/30 13:38:47;;;;;;;4.25;1.02;;;10.10;99.90;;;;;;5092111;28;20375;-51
2022/12/30 13:41:22;;;;;;;1.25;0.90;;;10.10;99.90;;;;;;5073824;28;20418;-48
2022/12/30 13:44:00;;;;;;;3.90;1.20;;;10.10;99.90;;;;;;5091289;28;20102;-49
2022/12/30 13:46:29;;;;;;;1.52;1.23;;;10.00;99.90;;;;;;5092457;28;20081;-49
2022/12/30 13:48:59;;;;;;;4.80;1.15;;;10.00;99.90;;;;;;5073776;28;20032;-47
2022/12/30 13:51:27;;;;;;;0.93;0.93;;;10.00;99.90;;;;;;5073431;28;20020;-51
2022/12/30 13:54:01;;;;;;;3.80;0.88;;;10.00;99.90;;;;;;5090842;28;20081;-46
2022/12/30 13:56:49;;;;;;;2.83;0.90;;;10.00;99.90;;;;;;5073716;28;20433;-53
2022/12/30 13:59:26;;;;;;;1.63;1.10;;;10.10;99.90;;;;;;5091865;28;20024;-52
2022/12/30 14:02:17;;;;;;;2.20;1.27;;;10.00;99.90;;;;;;5073021;28;20044;-49
2022/12/30 14:04:51;;;;;;;2.28;0.70;;;10.00;99.90;;;;;;5091520;28;20483;-50
2022/12/30 14:07:38;;;;;;;1.65;1.00;;;10.00;99.90;;;;;;5091506;28;20024;-52
2022/12/30 14:10:18;;;;;;;2.72;0.77;;;10.00;99.90;;;;;;5073414;28;20032;-50